createdAt,value
2019-06-07T00:03:23.626Z,1.77
2019-06-07T00:08:24.954Z,2.00
2019-06-07T00:13:22.449Z,1.67
2019-06-07T00:18:26.296Z,1.80
2019-06-07T00:23:29.563Z,1.92
2019-06-07T00:28:32.778Z,1.87
2019-06-07T00:33:35.992Z,2.05
2019-06-07T00:38:39.209Z,1.80
2019-06-07T00:43:42.409Z,1.87
2019-06-07T00:48:45.637Z,2.02
2019-06-07T00:53:48.840Z,2.05
2019-06-07T00:59:10.198Z,2.00
2019-06-07T01:03:57.043Z,2.17
2019-06-07T01:09:00.260Z,2.30
2019-06-07T01:14:03.936Z,2.17
2019-06-07T01:19:07.174Z,2.27
2019-06-07T01:24:12.481Z,1.98
2019-06-07T01:29:17.776Z,2.30
2019-06-07T01:34:21.239Z,2.27
2019-06-07T01:39:30.982Z,2.27
2019-06-07T01:44:31.011Z,1.77
2019-06-07T01:49:34.635Z,2.00
2019-06-07T01:54:58.650Z,2.40
2019-06-07T01:59:42.796Z,2.20
2019-06-07T02:04:46.012Z,2.55
2019-06-07T02:09:49.223Z,2.20
2019-06-07T02:14:52.439Z,2.58
2019-06-07T02:19:55.650Z,2.12
2019-06-07T02:25:34.669Z,2.17
2019-06-07T02:30:35.311Z,2.20
2019-06-07T02:35:09.980Z,2.15
2019-06-07T02:40:14.274Z,3.12
2019-06-07T02:45:18.864Z,2.75
2019-06-07T02:50:23.124Z,3.27
2019-06-07T02:55:29.592Z,3.42
2019-06-07T03:01:07.103Z,3.03
2019-06-07T03:05:53.194Z,2.85
2019-06-07T03:10:56.402Z,3.20
2019-06-07T03:16:01.399Z,2.62
2019-06-07T03:21:05.890Z,2.87
2019-06-07T03:26:09.176Z,2.80
2019-06-07T03:31:12.414Z,2.50
2019-06-07T03:36:23.802Z,2.55
2019-06-07T03:41:20.559Z,2.70
2019-06-07T03:46:23.774Z,2.50
2019-06-07T03:51:28.425Z,2.35
2019-06-07T03:56:33.767Z,2.50
2019-06-07T04:01:38.537Z,2.57
2019-06-07T04:06:42.769Z,2.57
2019-06-07T04:11:46.232Z,2.60
2019-06-07T04:16:49.456Z,2.52
2019-06-07T04:21:52.691Z,2.55
2019-06-07T04:26:55.916Z,2.42
2019-06-07T04:31:59.152Z,2.52
2019-06-07T04:37:02.379Z,2.55
2019-06-07T04:42:05.599Z,2.40
2019-06-07T04:47:08.815Z,2.72
2019-06-07T04:52:12.048Z,2.80
2019-06-07T04:57:15.262Z,2.77
2019-06-07T05:02:18.498Z,2.80
2019-06-07T05:07:21.739Z,2.92
2019-06-07T05:12:24.959Z,2.90
2019-06-07T05:17:28.858Z,2.40
2019-06-07T05:22:34.926Z,2.60
2019-06-07T05:27:41.210Z,2.77
2019-06-07T05:32:45.962Z,2.50
2019-06-07T05:37:48.032Z,2.50
2019-06-07T05:42:51.245Z,2.60
2019-06-07T05:47:54.933Z,2.30
2019-06-07T05:52:58.193Z,2.50
2019-06-07T05:58:01.404Z,2.55
2019-06-07T06:03:06.114Z,2.37
2019-06-07T06:08:09.534Z,2.50
2019-06-07T06:13:12.753Z,2.50
2019-06-07T06:18:15.969Z,2.22
2019-06-07T06:23:19.215Z,2.50
2019-06-07T06:28:22.501Z,2.52
2019-06-07T06:33:33.668Z,2.22
2019-06-07T06:38:31.468Z,2.20
2019-06-07T06:43:34.775Z,2.33
2019-06-07T06:48:40.759Z,2.20
2019-06-07T06:53:43.805Z,2.87
2019-06-07T06:59:26.794Z,2.57
2019-06-07T07:04:13.055Z,2.60
2019-06-07T07:08:57.879Z,3.03
2019-06-07T07:14:01.051Z,2.58
2019-06-07T07:19:04.271Z,2.47
2019-06-07T07:24:21.043Z,2.37
2019-06-07T07:29:12.445Z,2.43
2019-06-07T07:34:36.042Z,2.67
2019-06-07T07:39:20.640Z,2.67
2019-06-07T07:44:23.872Z,2.70
2019-06-07T07:49:27.091Z,2.83
2019-06-07T07:54:30.322Z,2.87
2019-06-07T07:59:42.183Z,2.80
2019-06-07T08:05:13.739Z,2.80
2019-06-07T08:09:44.210Z,2.83
2019-06-07T08:14:47.828Z,3.37
2019-06-07T08:19:55.017Z,3.13
2019-06-07T08:24:59.868Z,2.90
2019-06-07T08:30:25.896Z,2.93
2019-06-07T08:35:07.824Z,2.73
2019-06-07T08:40:11.162Z,2.50
2019-06-07T08:45:15.105Z,2.72
2019-06-07T08:50:18.347Z,2.58
2019-06-07T08:55:23.281Z,2.70
2019-06-07T09:00:45.414Z,2.45
2019-06-07T09:05:31.457Z,2.60
2019-06-07T09:10:34.666Z,3.00
2019-06-07T09:15:37.921Z,2.98
2019-06-07T09:20:48.672Z,2.92
2019-06-07T09:26:00.979Z,2.58
2019-06-07T09:30:59.197Z,2.30
2019-06-07T09:36:07.898Z,2.50
2019-06-07T09:41:07.639Z,2.07
2019-06-07T09:46:15.437Z,2.70
2019-06-07T09:51:20.007Z,2.50
2019-06-07T09:56:21.619Z,2.63
2019-06-07T10:01:24.830Z,2.45
2019-06-07T10:06:28.788Z,2.65
2019-06-07T10:11:32.007Z,2.50
2019-06-07T10:16:46.230Z,2.45
2019-06-07T10:21:40.180Z,2.50
2019-06-07T10:26:43.449Z,2.80
2019-06-07T10:31:46.681Z,2.20
2019-06-07T10:36:50.012Z,2.42
2019-06-07T10:41:54.156Z,2.58
2019-06-07T10:46:59.256Z,2.37
2019-06-07T10:52:04.958Z,2.37
2019-06-07T10:57:10.964Z,2.80
2019-06-07T11:02:14.042Z,2.60
2019-06-07T11:07:17.459Z,2.67
2019-06-07T11:12:20.687Z,2.72
2019-06-07T11:17:23.883Z,2.80
2019-06-07T11:22:27.097Z,2.33
2019-06-07T11:27:30.307Z,2.80
2019-06-07T11:32:33.533Z,2.47
2019-06-07T11:37:36.804Z,2.85
2019-06-07T11:42:40.453Z,2.40
2019-06-07T11:47:43.649Z,2.77
2019-06-07T11:52:46.876Z,2.60
2019-06-07T11:57:50.095Z,2.58
2019-06-07T12:02:53.525Z,2.50
2019-06-07T12:07:57.256Z,2.67
2019-06-07T12:13:00.753Z,2.37
2019-06-07T12:18:03.972Z,2.05
2019-06-07T12:23:07.214Z,2.58
2019-06-07T12:28:10.700Z,2.30
2019-06-07T12:33:15.388Z,2.37
2019-06-07T12:38:19.391Z,1.90
2019-06-07T12:43:23.831Z,2.40
2019-06-07T12:48:27.063Z,2.40
2019-06-07T12:53:30.275Z,2.00
2019-06-07T12:58:36.239Z,2.20
2019-06-07T13:03:38.447Z,1.97
2019-06-07T13:08:41.749Z,2.10
2019-06-07T13:13:44.972Z,1.87
2019-06-07T13:18:48.182Z,1.95
2019-06-07T13:23:51.428Z,1.90
2019-06-07T13:28:54.634Z,2.17
2019-06-07T13:33:57.848Z,1.70
2019-06-07T13:39:01.088Z,2.00
2019-06-07T13:44:04.299Z,1.75
2019-06-07T13:49:07.505Z,2.05
2019-06-07T13:54:10.737Z,2.12
2019-06-07T13:59:13.951Z,2.02
2019-06-07T14:04:18.699Z,1.80
2019-06-07T14:09:23.300Z,2.23
2019-06-07T14:14:27.493Z,2.27
2019-06-07T14:19:31.604Z,2.40
2019-06-07T14:24:34.821Z,2.50
2019-06-07T14:29:38.127Z,2.15
2019-06-07T14:34:41.350Z,2.52
2019-06-07T14:39:45.430Z,2.30
2019-06-07T14:44:48.641Z,2.08
2019-06-07T14:49:51.869Z,2.75
2019-06-07T14:54:55.082Z,2.83
2019-06-07T14:59:58.361Z,2.83
2019-06-07T15:05:01.569Z,2.40
2019-06-07T15:10:05.933Z,2.60
2019-06-07T15:15:09.630Z,2.55
2019-06-07T15:20:12.850Z,2.58
2019-06-07T15:25:16.075Z,2.37
2019-06-07T15:30:19.284Z,2.80
2019-06-07T15:35:22.520Z,2.90
2019-06-07T15:40:25.731Z,2.90
2019-06-07T15:45:29.345Z,2.80
2019-06-07T15:50:34.168Z,2.90
2019-06-07T15:55:43.853Z,3.60
2019-06-07T16:00:42.742Z,2.90
2019-06-07T16:05:46.041Z,2.85
2019-06-07T16:10:49.308Z,3.12
2019-06-07T16:15:52.462Z,3.10
2019-06-07T16:20:55.707Z,3.00
2019-06-07T16:25:58.921Z,3.10
2019-06-07T16:31:02.136Z,3.20
2019-06-07T16:36:05.400Z,3.45
2019-06-07T16:41:08.614Z,3.77
2019-06-07T16:46:11.819Z,3.20
2019-06-07T16:51:15.055Z,2.98
2019-06-07T16:56:18.657Z,3.22
2019-06-07T17:01:21.914Z,3.12
2019-06-07T17:06:25.138Z,3.37
2019-06-07T17:11:28.498Z,3.27
2019-06-07T17:16:31.822Z,3.47
2019-06-07T17:21:35.088Z,3.50
2019-06-07T17:26:39.408Z,3.30
2019-06-07T17:31:44.607Z,3.33
2019-06-07T17:36:48.667Z,3.20
2019-06-07T17:42:01.722Z,3.90
2019-06-07T17:46:57.118Z,3.77
2019-06-07T17:52:00.368Z,3.95
2019-06-07T17:57:03.592Z,3.75
2019-06-07T18:02:14.910Z,3.52
2019-06-07T18:07:11.802Z,4.40
2019-06-07T18:12:15.081Z,4.20
2019-06-07T18:17:33.495Z,4.12
2019-06-07T18:22:23.336Z,3.73
2019-06-07T18:27:26.533Z,3.90
2019-06-07T18:32:29.769Z,4.15
2019-06-07T18:37:33.043Z,4.53
2019-06-07T18:42:36.305Z,3.90
2019-06-07T18:47:39.568Z,4.08
2019-06-07T18:52:44.661Z,3.83
2019-06-07T18:57:48.162Z,4.25
2019-06-07T19:02:51.873Z,3.83
2019-06-07T19:07:56.574Z,4.05
2019-06-07T19:13:00.633Z,4.03
2019-06-07T19:18:04.030Z,4.12
2019-06-07T19:23:07.380Z,3.70
2019-06-07T19:28:10.615Z,4.50
2019-06-07T19:33:13.896Z,4.12
2019-06-07T19:38:17.333Z,4.58
2019-06-07T19:43:20.643Z,3.72
2019-06-07T19:48:23.863Z,4.15
2019-06-07T19:53:27.092Z,4.03
2019-06-07T19:58:30.329Z,4.50
2019-06-07T20:03:33.535Z,4.87
2019-06-07T20:08:36.765Z,4.62
2019-06-07T20:13:40.048Z,4.62
2019-06-07T20:18:43.273Z,4.10
2019-06-07T20:23:46.661Z,4.25
2019-06-07T20:28:49.871Z,4.10
2019-06-07T20:33:53.088Z,4.20
2019-06-07T20:38:57.869Z,4.05
2019-06-07T20:44:01.725Z,4.10
2019-06-07T20:49:06.495Z,4.40
2019-06-07T20:54:09.843Z,3.47
2019-06-07T20:59:13.108Z,3.80
2019-06-07T21:04:16.308Z,3.87
2019-06-07T21:09:19.517Z,4.20
2019-06-07T21:14:22.789Z,4.33
2019-06-07T21:19:25.988Z,3.98
2019-06-07T21:24:29.232Z,3.87
2019-06-07T21:29:32.534Z,3.85
2019-06-07T21:34:35.765Z,4.10
2019-06-07T21:39:39.080Z,3.72
2019-06-07T21:44:42.304Z,3.70
2019-06-07T21:49:45.593Z,3.90
2019-06-07T21:54:48.842Z,3.75
2019-06-07T21:59:52.072Z,3.98
2019-06-07T22:04:55.309Z,3.80
2019-06-07T22:09:58.549Z,3.90
2019-06-07T22:15:02.052Z,4.03
2019-06-07T22:20:08.746Z,3.90
2019-06-07T22:25:13.094Z,4.10
2019-06-07T22:30:16.399Z,3.87
2019-06-07T22:35:19.639Z,4.00
2019-06-07T22:40:23.040Z,4.10
2019-06-07T22:45:26.251Z,4.00
2019-06-07T22:50:29.479Z,3.87
2019-06-07T22:55:32.734Z,3.72
2019-06-07T23:00:37.439Z,3.50
2019-06-07T23:05:40.639Z,3.60
2019-06-07T23:10:43.900Z,3.98
2019-06-07T23:15:47.127Z,3.62
2019-06-07T23:20:50.352Z,3.95
2019-06-07T23:25:53.592Z,3.58
2019-06-07T23:30:56.813Z,3.75
2019-06-07T23:36:00.047Z,4.00
2019-06-07T23:41:03.316Z,4.03
2019-06-07T23:46:06.532Z,3.90
2019-06-07T23:51:09.733Z,3.83
2019-06-07T23:56:13.775Z,3.75
